Time;durP1;ratioP1;P1;durP2;ratioP2;P2;SDS_P1;SDS_P2;PMS_P1;PMS_P2;Temp;Humidity;BMP_temperature;BMP_pressure;BME280_temperature;BME280_humidity;BME280_pressure;Samples;Min_cycle;Max_cycle;Signal;HPM_P1;HPM_P2
2022/05/15 00:01:37;;;;;;;11.50;3.70;;;;;;;11.85;64.86;100823.48;1590189;88;25878;-74
2022/05/15 00:04:03;;;;;;;8.35;3.70;;;;;;;11.78;65.09;100815.89;1591380;88;25989;-74
2022/05/15 00:06:29;;;;;;;9.13;3.47;;;;;;;11.75;65.08;100820.28;1596143;88;27617;-74
2022/05/15 00:08:56;;;;;;;12.37;4.10;;;;;;;11.73;65.54;100822.33;1587630;88;25839;-74
2022/05/15 00:11:22;;;;;;;7.47;3.58;;;;;;;11.72;65.16;100822.52;1592885;88;25908;-74
2022/05/15 00:13:48;;;;;;;11.65;3.55;;;;;;;11.73;65.58;100825.00;1594694;88;25868;-74
2022/05/15 00:16:17;;;;;;;11.22;4.42;;;;;;;11.72;65.45;100829.23;1582155;88;25882;-74
2022/05/15 00:18:44;;;;;;;13.08;4.58;;;;;;;11.71;65.41;100824.87;1588486;88;27466;-75
2022/05/15 00:21:13;;;;;;;10.13;3.47;;;;;;;11.73;65.41;100820.98;1581802;88;25999;-74
2022/05/15 00:23:39;;;;;;;11.97;3.17;;;;;;;11.76;65.31;100822.46;1592537;88;25835;-74
2022/05/15 00:26:05;;;;;;;10.65;3.67;;;;;;;11.76;65.35;100823.80;1591544;88;25871;-74
2022/05/15 00:28:33;;;;;;;7.78;3.42;;;;;;;11.75;65.15;100824.30;1599443;87;25933;-74
2022/05/15 00:30:59;;;;;;;8.30;3.92;;;;;;;11.74;65.21;100823.16;1607348;87;27630;-74
2022/05/15 00:33:26;;;;;;;8.38;3.65;;;;;;;11.75;65.18;100826.15;1595404;88;26588;-74
2022/05/15 00:35:53;;;;;;;8.53;3.50;;;;;;;11.75;65.36;100831.52;1588609;88;25814;-74
2022/05/15 00:38:19;;;;;;;11.88;3.62;;;;;;;11.73;65.30;100823.66;1589515;88;26252;-74
2022/05/15 00:40:48;;;;;;;11.65;4.17;;;;;;;11.72;65.31;100833.25;1581857;88;25906;-74
2022/05/15 00:43:42;;;;;;;10.93;4.03;;;;;;;11.71;65.31;100826.21;1593564;88;27473;-74
2022/05/15 00:46:14;;;;;;;11.57;3.60;;;;;;;11.69;65.22;100829.09;1584893;88;26540;-74
2022/05/15 00:48:40;;;;;;;9.10;2.92;;;;;;;11.69;65.34;100826.41;1584399;88;25770;-74
2022/05/15 00:51:17;;;;;;;10.90;3.47;;;;;;;11.69;65.24;100825.06;1591390;88;25806;-74
2022/05/15 00:53:44;;;;;;;6.97;3.17;;;;;;;11.70;65.18;100825.38;1586367;88;26490;-74
2022/05/15 00:56:12;;;;;;;8.15;3.12;;;;;;;11.69;65.10;100823.72;1582020;88;27497;-74
2022/05/15 00:58:43;;;;;;;8.25;3.15;;;;;;;11.67;65.24;100835.16;1581914;88;25848;-74
2022/05/15 01:01:09;;;;;;;;;;;;;;;11.63;65.27;100826.59;1596902;88;25779;-74
2022/05/15 01:03:35;;;;;;;9.70;2.80;;;;;;;11.58;65.39;100830.37;1560427;88;25868;-74
2022/05/15 01:06:02;;;;;;;18.40;3.00;;;;;;;11.52;65.34;100827.61;1582144;88;25796;-74
2022/05/15 01:08:30;;;;;;;10.18;3.33;;;;;;;11.52;65.39;100831.63;1583474;88;26958;-74
2022/05/15 01:11:12;;;;;;;10.85;2.85;;;;;;;11.52;65.43;100831.63;1587784;88;26051;-74
2022/05/15 01:13:37;;;;;;;7.97;3.12;;;;;;;11.48;65.37;100823.11;1619233;88;25852;-74
2022/05/15 01:16:05;;;;;;;9.85;3.12;;;;;;;11.48;65.37;100827.66;1620178;88;26370;-74
2022/05/15 01:18:35;;;;;;;10.20;3.22;;;;;;;11.47;65.34;100828.66;1620054;88;25940;-75
2022/05/15 01:21:24;;;;;;;10.88;2.95;;;;;;;11.42;65.43;100819.00;1601311;87;27469;-74
2022/05/15 01:23:51;;;;;;;5.10;2.87;;;;;;;11.39;65.45;100821.56;1583016;88;26651;-74
2022/05/15 01:26:19;;;;;;;13.45;4.00;;;;;;;11.34;65.52;100825.31;1620094;87;25798;-74
2022/05/15 01:28:45;;;;;;;9.60;3.08;;;;;;;11.35;65.63;100826.98;1607112;88;25812;-74
2022/05/15 01:31:13;;;;;;;7.70;3.72;;;;;;;11.30;65.67;100823.18;1592270;88;25864;-74
2022/05/15 01:33:40;;;;;;;9.78;3.25;;;;;;;11.27;65.89;100823.57;1591465;88;27489;-74
2022/05/15 01:36:08;;;;;;;9.45;3.02;;;;;;;11.23;65.87;100833.81;1598585;88;25860;-74
2022/05/15 01:38:34;;;;;;;10.60;3.33;;;;;;;11.24;66.08;100834.15;1589545;88;26004;-74
2022/05/15 01:41:00;;;;;;;13.15;3.27;;;;;;;11.22;65.98;100833.50;1620034;88;25753;-74
2022/05/15 01:43:27;;;;;;;14.50;3.22;;;;;;;11.19;66.06;100839.72;1592742;88;25334;-74
2022/05/15 01:45:53;;;;;;;11.05;3.35;;;;;;;11.14;66.09;100839.47;1589930;88;28076;-74
2022/05/15 01:48:20;;;;;;;8.90;3.30;;;;;;;11.12;66.25;100839.63;1582032;88;25939;-74
2022/05/15 01:50:47;;;;;;;9.95;3.33;;;;;;;11.08;66.22;100842.86;1591997;88;25841;-74
2022/05/15 01:53:15;;;;;;;9.88;3.25;;;;;;;11.01;66.35;100844.63;1589960;88;26630;-74
2022/05/15 01:55:42;;;;;;;11.78;3.27;;;;;;;10.98;66.48;100836.44;1598981;88;25884;-74
2022/05/15 01:58:10;;;;;;;11.25;4.05;;;;;;;10.97;66.44;100842.80;1612703;87;28371;-74
2022/05/15 02:00:38;;;;;;;12.30;3.70;;;;;;;10.98;66.51;100844.48;1581464;87;25807;-74
2022/05/15 02:03:04;;;;;;;10.03;3.90;;;;;;;10.98;66.57;100840.97;1598352;88;25859;-74
2022/05/15 02:05:30;;;;;;;13.43;3.80;;;;;;;10.94;66.57;100844.53;1596053;88;26311;-74
2022/05/15 02:07:57;;;;;;;10.32;3.75;;;;;;;10.92;66.61;100839.86;1586588;88;25353;-74
2022/05/15 02:10:23;;;;;;;11.28;3.85;;;;;;;10.84;66.87;100842.09;1595906;88;27444;-74
2022/05/15 02:12:50;;;;;;;15.30;4.10;;;;;;;10.83;67.11;100847.16;1587665;88;26471;-74
2022/05/15 02:15:17;;;;;;;11.70;4.47;;;;;;;10.82;67.11;100846.81;1613628;88;26433;-74
2022/05/15 02:17:43;;;;;;;8.73;4.35;;;;;;;10.78;67.04;100850.87;1619768;88;26448;-74
2022/05/15 02:20:12;;;;;;;14.95;5.08;;;;;;;10.71;67.23;100847.24;1620015;88;26007;-74
2022/05/15 02:22:41;;;;;;;14.45;4.55;;;;;;;10.66;67.24;100849.66;1619461;88;27688;-74
2022/05/15 02:25:11;;;;;;;12.60;5.30;;;;;;;10.65;67.41;100844.45;1619761;88;25770;-75
2022/05/15 02:27:40;;;;;;;12.25;4.75;;;;;;;10.61;67.50;100847.17;1596760;88;25773;-74
2022/05/15 02:30:09;;;;;;;13.00;4.50;;;;;;;10.53;67.74;100848.09;1598456;86;25821;-74
2022/05/15 02:32:35;;;;;;;8.48;5.08;;;;;;;10.52;68.06;100847.75;1612060;87;25994;-74
2022/05/15 02:35:03;;;;;;;13.03;5.78;;;;;;;10.50;68.11;100848.97;1593303;88;27496;-74
2022/05/15 02:37:29;;;;;;;11.20;5.22;;;;;;;10.44;68.37;100849.66;1591434;88;25767;-74
2022/05/15 02:39:56;;;;;;;11.95;4.80;;;;;;;10.38;68.57;100849.89;1586583;88;26584;-74
2022/05/15 02:42:22;;;;;;;11.28;5.50;;;;;;;10.34;68.58;100853.94;1581704;88;25875;-74
2022/05/15 02:44:52;;;;;;;13.60;5.90;;;;;;;10.30;68.89;100849.95;1575713;88;26066;-74
2022/05/15 02:47:18;;;;;;;12.15;5.45;;;;;;;10.32;69.06;100855.97;1619871;88;27633;-74
2022/05/15 02:52:30;;;;;;;13.90;5.28;;;;;;;10.33;69.09;100853.59;1619403;88;25889;-74
2022/05/15 02:54:56;;;;;;;13.08;5.08;;;;;;;10.32;69.09;100848.43;1619857;88;25925;-74
2022/05/15 02:57:23;;;;;;;14.47;5.62;;;;;;;10.30;69.27;100855.31;1620186;88;25817;-74
2022/05/15 02:59:49;;;;;;;12.78;5.45;;;;;;;10.30;69.29;100856.65;1620184;88;28404;-74
2022/05/15 03:02:15;;;;;;;18.23;6.83;;;;;;;10.30;69.37;100853.97;1619927;87;25822;-74
2022/05/15 03:04:42;;;;;;;15.32;6.08;;;;;;;10.29;69.42;100864.34;1606915;87;26471;-74
2022/05/15 03:07:09;;;;;;;15.30;5.45;;;;;;;10.26;69.54;100851.33;1623668;87;25864;-74
2022/05/15 03:09:35;;;;;;;22.22;6.05;;;;;;;10.24;69.72;100851.17;1617277;87;25588;-74
2022/05/15 03:12:02;;;;;;;13.48;6.50;;;;;;;10.25;69.86;100852.83;1616513;87;28340;-74
2022/05/15 03:14:30;;;;;;;8.85;5.28;;;;;;;10.23;69.66;100858.86;1614546;87;25848;-74
2022/05/15 03:16:57;;;;;;;15.83;4.92;;;;;;;10.19;69.79;100849.52;1621760;87;25926;-74
2022/05/15 03:19:24;;;;;;;10.78;5.45;;;;;;;10.16;69.82;100852.05;1617069;87;26550;-74
2022/05/15 03:21:51;;;;;;;18.05;5.50;;;;;;;10.18;69.93;100858.58;1617081;87;25409;-75
2022/05/15 03:24:17;;;;;;;12.60;5.20;;;;;;;10.17;69.90;100859.58;1615757;87;27648;-74
2022/05/15 03:26:47;;;;;;;13.03;5.03;;;;;;;10.17;70.11;100864.94;1613772;87;25814;-74
2022/05/15 03:29:16;;;;;;;14.55;5.30;;;;;;;10.16;70.18;100861.95;1618086;87;26566;-74
2022/05/15 03:31:43;;;;;;;15.28;5.35;;;;;;;10.14;70.39;100866.65;1616887;87;25936;-74
2022/05/15 03:34:13;;;;;;;16.67;5.90;;;;;;;10.12;70.49;100862.78;1618921;87;25773;-74
2022/05/15 03:36:42;;;;;;;15.93;5.33;;;;;;;10.12;70.59;100869.97;1618377;87;28315;-74
2022/05/15 03:39:10;;;;;;;10.65;4.80;;;;;;;10.08;70.69;100870.31;1620175;87;26177;-74
2022/05/15 03:41:37;;;;;;;13.60;5.47;;;;;;;10.09;70.94;100872.49;1619305;87;25862;-74
2022/05/15 03:44:05;;;;;;;11.45;4.30;;;;;;;10.11;70.93;100877.20;1618648;87;26552;-74
2022/05/15 03:46:32;;;;;;;10.03;4.37;;;;;;;10.12;71.19;100876.17;1619807;87;25789;-74
2022/05/15 03:48:58;;;;;;;10.88;4.30;;;;;;;10.11;71.09;100877.69;1653238;85;27716;-74
2022/05/15 03:51:25;;;;;;;12.45;4.90;;;;;;;10.15;71.56;100880.34;1609765;87;25941;-74
2022/05/15 03:53:51;;;;;;;13.10;4.83;;;;;;;10.20;71.79;100876.64;1611035;87;26548;-74
2022/05/15 03:56:18;;;;;;;15.80;4.72;;;;;;;10.36;72.00;100884.55;1609897;87;25856;-74
2022/05/15 03:58:44;;;;;;;18.87;4.45;;;;;;;10.49;71.86;100887.46;1611332;87;26530;-74
2022/05/15 04:01:10;;;;;;;10.48;5.25;;;;;;;10.52;71.55;100891.95;1609725;87;28329;-74
2022/05/15 04:03:38;;;;;;;12.88;4.12;;;;;;;10.54;71.48;100894.47;1609717;87;25885;-74
2022/05/15 04:06:05;;;;;;;13.68;4.37;;;;;;;10.55;71.40;100898.30;1604961;87;25919;-74
2022/05/15 04:08:31;;;;;;;11.10;4.70;;;;;;;10.61;71.50;100898.07;1584718;89;27006;-74
2022/05/15 04:10:57;;;;;;;11.25;5.05;;;;;;;10.63;71.44;100904.08;1584812;88;25921;-73
2022/05/15 04:13:23;;;;;;;13.03;5.05;;;;;;;10.68;71.50;100903.89;1584476;89;28199;-74
2022/05/15 04:15:50;;;;;;;12.20;4.58;;;;;;;10.73;71.30;100910.86;1586193;89;26084;-74
2022/05/15 04:18:17;;;;;;;15.25;5.08;;;;;;;10.78;71.48;100920.54;1584346;89;25854;-74
2022/05/15 04:20:43;;;;;;;11.75;4.17;;;;;;;10.78;71.48;100918.36;1585647;89;25838;-74
2022/05/15 04:23:09;;;;;;;12.23;4.15;;;;;;;10.81;71.57;100922.88;1584518;89;25999;-74
2022/05/15 04:25:36;;;;;;;12.45;3.83;;;;;;;10.81;71.59;100921.53;1585669;89;27734;-74
2022/05/15 04:28:03;;;;;;;11.18;4.20;;;;;;;10.82;71.75;100920.50;1584554;89;26116;-74
2022/05/15 04:30:29;;;;;;;9.70;3.45;;;;;;;10.87;71.97;100922.64;1584544;89;26531;-74
2022/05/15 04:32:56;;;;;;;10.30;4.10;;;;;;;10.93;71.89;100933.97;1585996;87;25837;-74
2022/05/15 04:35:24;;;;;;;12.30;4.08;;;;;;;10.98;71.82;100927.58;1584690;89;25940;-74
2022/05/15 04:37:51;;;;;;;10.93;3.75;;;;;;;11.06;72.13;100928.83;1585752;89;27468;-74
2022/05/15 04:40:20;;;;;;;12.07;3.67;;;;;;;11.10;71.92;100929.33;1584432;89;26017;-74
2022/05/15 04:42:46;;;;;;;14.93;4.08;;;;;;;11.14;72.01;100930.09;1585911;89;26482;-74
2022/05/15 04:45:13;;;;;;;10.30;3.67;;;;;;;11.18;72.55;100931.42;1584808;89;25898;-74
2022/05/15 04:47:39;;;;;;;10.55;3.98;;;;;;;11.19;72.25;100930.39;1585770;89;25859;-74
2022/05/15 04:50:07;;;;;;;11.97;4.53;;;;;;;11.26;72.54;100934.52;1584675;89;27531;-74
2022/05/15 04:52:33;;;;;;;9.23;4.50;;;;;;;11.33;72.23;100934.92;1585506;89;25889;-74
2022/05/15 04:54:59;;;;;;;11.90;4.00;;;;;;;11.38;72.27;100935.22;1585217;88;25324;-74
2022/05/15 04:57:26;;;;;;;11.60;3.50;;;;;;;11.43;72.84;100938.70;1585078;89;26714;-74
2022/05/15 04:59:52;;;;;;;11.95;3.52;;;;;;;11.48;72.48;100937.64;1586261;89;26032;-74
2022/05/15 05:02:18;;;;;;;14.18;4.30;;;;;;;11.50;72.43;100934.27;1584814;89;27524;-74
2022/05/15 05:04:44;;;;;;;11.88;3.45;;;;;;;11.55;72.12;100941.23;1585975;89;25930;-74
2022/05/15 05:07:11;;;;;;;8.88;3.40;;;;;;;11.61;72.09;100945.36;1585096;89;25779;-74
2022/05/15 05:09:37;;;;;;;10.35;3.60;;;;;;;11.68;72.08;100950.01;1590917;89;25781;-75
2022/05/15 05:12:04;;;;;;;11.57;4.05;;;;;;;11.69;71.45;100941.80;1601259;87;25357;-74
2022/05/15 05:14:30;;;;;;;9.25;2.92;;;;;;;11.70;71.84;100944.78;1591047;89;27498;-74
2022/05/15 05:16:56;;;;;;;7.42;3.22;;;;;;;11.76;71.37;100946.72;1593903;88;26065;-74
2022/05/15 05:19:25;;;;;;;9.70;2.58;;;;;;;11.81;71.30;100942.14;1592352;88;25816;-74
2022/05/15 05:21:51;;;;;;;8.23;3.15;;;;;;;11.88;71.24;100951.13;1596141;88;25816;-74
2022/05/15 05:24:17;;;;;;;10.03;3.12;;;;;;;11.91;70.72;100940.83;1589219;89;25799;-74
2022/05/15 05:26:43;;;;;;;6.78;2.75;;;;;;;11.99;70.96;100945.28;1601373;89;27470;-74
2022/05/15 05:29:10;;;;;;;8.20;2.92;;;;;;;12.08;70.69;100944.97;1585087;89;25861;-74
2022/05/15 05:31:36;;;;;;;9.90;3.00;;;;;;;12.16;70.70;100943.55;1596364;89;25833;-75
2022/05/15 05:34:02;;;;;;;11.50;3.12;;;;;;;12.24;70.17;100947.45;1607351;88;25823;-75
2022/05/15 05:36:29;;;;;;;12.23;2.75;;;;;;;12.28;69.80;100939.34;1581727;89;26004;-74
2022/05/15 05:38:55;;;;;;;8.50;2.33;;;;;;;12.40;69.79;100942.37;1594779;89;27612;-74
2022/05/15 05:41:21;;;;;;;7.35;2.27;;;;;;;12.50;68.70;100940.20;1595759;88;26214;-74
2022/05/15 05:43:47;;;;;;;9.35;2.40;;;;;;;12.50;67.71;100942.05;1612807;87;25273;-75
2022/05/15 05:46:14;;;;;;;8.08;2.45;;;;;;;12.55;67.30;100945.00;1604947;87;26381;-75
2022/05/15 05:48:45;;;;;;;6.78;2.37;;;;;;;12.61;67.64;100950.45;1586190;88;25877;-75
2022/05/15 05:51:09;;;;;;;5.85;3.08;;;;;;;12.70;67.07;100948.47;1597317;89;28552;-76
2022/05/15 05:53:35;;;;;;;5.83;1.80;;;;;;;12.77;65.16;100955.56;1594395;89;25877;-75
2022/05/15 05:56:02;;;;;;;7.30;2.17;;;;;;;12.80;65.24;100952.50;1587673;89;26445;-75
2022/05/15 05:58:29;;;;;;;4.95;1.90;;;;;;;12.87;65.28;100951.22;1590407;89;26538;-75
2022/05/15 06:00:55;;;;;;;10.32;2.65;;;;;;;12.93;65.59;100952.63;1604599;87;25917;-75
2022/05/15 06:06:06;;;;;;;6.28;2.02;;;;;;;13.04;64.09;100956.64;1604250;87;26615;-75
2022/05/15 06:08:32;;;;;;;5.58;1.90;;;;;;;13.05;62.58;100959.16;1607282;87;25891;-75
2022/05/15 06:10:59;;;;;;;9.30;1.70;;;;;;;13.00;63.36;100958.06;1626785;87;26330;-76
2022/05/15 06:13:26;;;;;;;9.03;2.45;;;;;;;13.06;63.43;100957.31;1604391;88;25781;-75
2022/05/15 06:15:54;;;;;;;7.00;2.25;;;;;;;13.14;63.51;100963.38;1606810;88;27468;-75
2022/05/15 06:18:21;;;;;;;5.35;1.45;;;;;;;13.19;62.19;100961.97;1620440;87;25928;-76
2022/05/15 06:20:47;;;;;;;11.80;1.60;;;;;;;13.12;61.24;100975.36;1616921;87;25901;-75
2022/05/15 06:23:13;;;;;;;5.28;1.40;;;;;;;13.08;61.83;100964.67;1618256;87;26657;-76
2022/05/15 06:25:40;;;;;;;14.55;1.60;;;;;;;13.17;61.60;100978.81;1619235;87;25953;-75
2022/05/15 06:28:06;;;;;;;8.50;1.77;;;;;;;13.19;60.98;100971.38;1622221;87;27537;-75
2022/05/15 06:30:32;;;;;;;7.22;1.60;;;;;;;13.22;60.84;100969.13;1620535;87;25854;-75
2022/05/15 06:32:59;;;;;;;9.05;1.40;;;;;;;13.23;60.30;100972.66;1620673;87;25792;-76
2022/05/15 06:35:25;;;;;;;9.98;1.87;;;;;;;13.23;60.59;100976.69;1616478;87;26425;-75
2022/05/15 06:37:52;;;;;;;5.58;1.15;;;;;;;13.27;59.84;100969.37;1619220;87;26432;-76
2022/05/15 06:40:18;;;;;;;7.95;1.35;;;;;;;13.35;59.69;100971.92;1618141;87;27449;-76
2022/05/15 06:42:45;;;;;;;6.75;1.40;;;;;;;13.40;59.51;100974.03;1620790;87;26112;-75
2022/05/15 06:45:13;;;;;;;7.40;1.32;;;;;;;13.49;59.65;100976.39;1618226;87;25927;-76
2022/05/15 06:47:40;;;;;;;6.53;1.47;;;;;;;13.58;58.81;100980.56;1617103;87;26246;-76
2022/05/15 06:50:08;;;;;;;6.10;1.15;;;;;;;13.60;58.43;100979.05;1622502;87;26738;-75
2022/05/15 06:52:36;;;;;;;4.72;1.42;;;;;;;13.65;58.73;100976.58;1616898;87;27536;-76
2022/05/15 06:55:06;;;;;;;8.05;1.85;;;;;;;13.75;56.98;100985.16;1611711;87;26474;-76
2022/05/15 06:57:33;;;;;;;8.48;1.40;;;;;;;13.73;57.06;100990.71;1602685;89;25935;-76
2022/05/15 07:00:04;;;;;;;9.38;1.65;;;;;;;13.82;57.68;100986.84;1585595;88;26306;-76
2022/05/15 07:02:31;;;;;;;6.55;1.85;;;;;;;13.92;56.52;100990.53;1594058;89;25954;-75
2022/05/15 07:04:58;;;;;;;7.03;1.67;;;;;;;13.95;57.57;100990.12;1600778;89;27690;-76
2022/05/15 07:07:25;;;;;;;3.70;1.07;;;;;;;14.04;57.72;100992.97;1607025;88;25931;-75
2022/05/15 07:09:51;;;;;;;5.92;1.20;;;;;;;14.13;56.96;101001.20;1579566;90;25885;-75
2022/05/15 07:12:18;;;;;;;3.70;1.32;;;;;;;14.17;56.53;100994.89;1601394;88;25839;-76
2022/05/15 07:14:44;;;;;;;6.62;1.30;;;;;;;14.18;56.90;100996.03;1597370;88;25795;-75
2022/05/15 07:17:11;;;;;;;6.78;1.15;;;;;;;14.27;55.88;100998.03;1598921;87;27464;-76
2022/05/15 07:19:37;;;;;;;11.25;1.65;;;;;;;14.35;54.78;100994.69;1610638;87;25814;-76
2022/05/15 07:22:04;;;;;;;6.60;1.30;;;;;;;14.31;54.16;101001.52;1616650;87;25931;-76
2022/05/15 07:24:30;;;;;;;7.12;2.08;;;;;;;14.26;54.03;101003.13;1616326;87;25840;-76
2022/05/15 07:26:56;;;;;;;11.75;1.55;;;;;;;14.30;55.75;101001.22;1602865;87;25919;-76
2022/05/15 07:29:24;;;;;;;7.25;1.55;;;;;;;14.37;54.26;100996.66;1613957;87;27503;-75
2022/05/15 07:31:53;;;;;;;6.53;1.37;;;;;;;14.37;55.51;100996.66;1607661;88;25900;-76
2022/05/15 07:34:21;;;;;;;6.83;1.35;;;;;;;14.50;55.75;101002.61;1607894;88;25855;-75
2022/05/15 07:36:52;;;;;;;3.37;1.67;;;;;;;14.63;56.43;101002.66;1608128;88;25873;-76
2022/05/15 07:39:15;;;;;;;8.08;1.70;;;;;;;14.70;54.17;101007.56;1607238;89;26603;-76
2022/05/15 07:41:42;;;;;;;8.75;1.32;;;;;;;14.70;53.68;101004.86;1607770;88;27445;-76
2022/05/15 07:44:08;;;;;;;10.65;1.55;;;;;;;14.73;54.20;101005.81;1607929;88;25800;-76
2022/05/15 07:46:34;;;;;;;7.53;1.10;;;;;;;14.75;55.00;101003.74;1608078;88;25759;-76
2022/05/15 07:49:00;;;;;;;9.13;1.50;;;;;;;14.80;54.06;101012.03;1608250;88;25802;-76
2022/05/15 07:51:27;;;;;;;7.78;1.55;;;;;;;14.82;53.29;101007.27;1607606;88;25935;-76
2022/05/15 07:53:53;;;;;;;5.72;1.62;;;;;;;14.85;53.24;101012.27;1607569;88;27467;-76
2022/05/15 07:56:19;;;;;;;6.03;2.27;;;;;;;14.82;53.71;101011.31;1607816;88;25816;-76
2022/05/15 07:58:46;;;;;;;7.70;1.72;;;;;;;14.91;52.42;101001.16;1581661;90;25873;-76
2022/05/15 08:01:12;;;;;;;8.15;1.60;;;;;;;14.97;51.75;101002.52;1607325;89;26139;-75
2022/05/15 08:03:43;;;;;;;8.30;1.70;;;;;;;15.05;51.14;101010.95;1607290;89;26001;-76
2022/05/15 08:08:51;;;;;;;6.05;1.90;;;;;;;15.19;52.75;101017.50;1606008;89;25916;-76
2022/05/15 08:11:18;;;;;;;6.83;2.10;;;;;;;15.29;53.00;101019.27;1613836;88;25855;-76
2022/05/15 08:13:44;;;;;;;6.65;1.70;;;;;;;15.34;53.35;101019.99;1607941;87;25891;-76
2022/05/15 08:16:11;;;;;;;6.50;2.12;;;;;;;15.37;53.60;101021.78;1608093;89;25845;-76
2022/05/15 08:24:08;;;;;;;7.62;2.52;;;;;;;15.42;53.72;101027.36;1608188;87;25830;-74
2022/05/15 08:26:35;;;;;;;7.28;2.72;;;;;;;15.32;52.98;101026.95;1595994;89;25961;-75
2022/05/15 08:29:01;;;;;;;7.62;2.58;;;;;;;15.39;53.52;101027.80;1617010;87;26316;-75
2022/05/15 08:31:28;;;;;;;10.58;3.00;;;;;;;15.46;51.94;101032.39;1586026;88;27467;-74
2022/05/15 08:33:54;;;;;;;8.25;3.47;;;;;;;15.36;52.03;101031.41;1581222;90;25858;-75
2022/05/15 08:36:21;;;;;;;3.30;2.05;;;;;;;15.39;52.76;101034.55;1607832;88;25792;-74
2022/05/15 08:38:47;;;;;;;14.07;4.75;;;;;;;15.35;52.51;101042.72;1586873;89;26622;-74
2022/05/15 08:41:34;;;;;;;7.20;2.25;;;;;;;15.27;51.53;101042.93;1611161;87;25899;-74
2022/05/15 08:44:33;;;;;;;5.22;2.20;;;;;;;15.30;52.07;101035.78;1611564;87;27486;-75
2022/05/15 08:47:38;;;;;;;6.08;1.70;;;;;;;15.44;52.20;101034.77;1610230;87;26583;-75
2022/05/15 08:50:12;;;;;;;5.75;1.60;;;;;;;15.69;53.19;101036.33;1612610;87;25790;-75
2022/05/15 08:52:55;;;;;;;5.65;2.08;;;;;;;15.72;51.62;101041.80;1614173;87;26771;-75
2022/05/15 08:55:42;;;;;;;4.03;1.75;;;;;;;15.48;49.08;101035.20;1612926;87;25748;-74
2022/05/15 08:58:19;;;;;;;3.37;1.98;;;;;;;15.29;50.60;101042.20;1604292;87;27477;-75
2022/05/15 09:00:50;;;;;;;4.72;1.65;;;;;;;15.44;50.74;101040.68;1581716;89;26201;-75
2022/05/15 09:03:31;;;;;;;6.92;3.02;;;;;;;15.59;51.34;101041.30;1616888;87;25764;-75
2022/05/15 09:06:34;;;;;;;7.70;2.12;;;;;;;15.63;51.56;101047.13;1582882;90;25848;-74
2022/05/15 09:09:20;;;;;;;6.05;2.60;;;;;;;15.64;51.23;101045.56;1585217;89;26014;-75
2022/05/15 09:11:56;;;;;;;4.00;1.70;;;;;;;15.75;52.81;101053.55;1606481;89;26939;-75
2022/05/15 09:15:00;;;;;;;14.23;2.45;;;;;;;15.74;50.90;101043.27;1580415;90;25863;-74
2022/05/15 09:17:57;;;;;;;5.00;2.25;;;;;;;15.81;51.44;101049.50;1606288;89;26251;-74
2022/05/15 09:20:47;;;;;;;4.42;1.70;;;;;;;16.04;50.94;101039.57;1613809;88;26370;-75
2022/05/15 09:23:25;;;;;;;8.55;1.80;;;;;;;16.12;50.35;101047.48;1611703;88;26534;-75
2022/05/15 09:25:58;;;;;;;2.72;1.42;;;;;;;16.07;49.99;101051.33;1613710;88;27485;-75
2022/05/15 09:28:27;;;;;;;6.83;1.85;;;;;;;16.12;49.92;101042.88;1613772;88;25772;-75
2022/05/15 09:31:15;;;;;;;8.35;1.40;;;;;;;16.21;50.76;101042.96;1635683;80;25780;31
2022/05/15 09:38:26;;;;;;;5.10;1.42;;;;;;;16.33;48.40;101047.72;1643756;86;25744;-75
2022/05/15 09:39:28;;;;;;;6.33;1.52;;;;;;;16.34;50.26;101044.79;1656184;82;28731;-75
2022/05/15 09:45:25;;;;;;;3.75;1.32;;;;;;;16.51;49.30;101062.78;1682051;83;25828;-75
2022/05/15 09:48:00;;;;;;;3.77;1.80;;;;;;;16.52;47.39;101052.25;1672165;84;26576;-75
2022/05/15 09:50:52;;;;;;;4.20;1.30;;;;;;;16.55;47.50;101050.48;1669678;84;25777;-74
2022/05/15 09:53:38;;;;;;;6.67;1.47;;;;;;;16.58;47.63;101063.05;1667279;84;27558;-75
2022/05/15 09:56:13;;;;;;;5.75;1.52;;;;;;;16.62;48.29;101053.45;1668187;84;26014;-75
2022/05/15 09:59:08;;;;;;;5.28;1.67;;;;;;;16.66;49.34;101047.91;1629863;84;26135;-75
2022/05/15 10:01:58;;;;;;;9.50;1.17;;;;;;;16.66;48.14;101054.67;1617685;87;26339;-75
2022/05/15 10:04:28;;;;;;;8.17;1.43;;;;;;;16.73;46.26;101054.64;1676017;83;25840;-75
2022/05/15 10:07:02;;;;;;;5.73;1.40;;;;;;;16.78;47.93;101044.86;1680784;83;27469;-75
2022/05/15 10:09:36;;;;;;;4.60;1.25;;;;;;;16.90;48.12;101047.17;1663997;85;25346;-75
2022/05/15 10:12:23;;;;;;;3.02;0.98;;;;;;;16.90;47.82;101039.05;1657303;85;25853;-75
2022/05/15 10:14:57;;;;;;;4.53;1.07;;;;;;;17.02;47.79;101038.37;1697283;83;26507;-75
2022/05/15 10:17:25;;;;;;;3.72;1.22;;;;;;;17.12;45.41;101036.84;1641264;85;26054;-75
2022/05/15 10:20:05;;;;;;;6.37;1.37;;;;;;;17.13;47.60;101045.24;1669741;84;27629;-74
2022/05/15 10:22:52;;;;;;;5.08;1.37;;;;;;;17.20;46.50;101025.73;1686844;84;25905;-74
2022/05/15 10:28:49;;;;;;;5.40;1.42;;;;;;;17.17;46.67;101030.22;1727662;80;26556;31
2022/05/15 10:31:35;;;;;;;9.20;1.80;;;;;;;17.26;46.62;101025.37;1670787;85;26533;-75
2022/05/15 10:34:06;;;;;;;3.58;0.98;;;;;;;17.36;45.13;101023.86;1652566;86;27487;-75
2022/05/15 10:40:15;;;;;;;3.17;1.02;;;;;;;17.32;44.09;101039.41;1671989;81;25697;-74
2022/05/15 10:46:04;;;;;;;3.05;1.12;;;;;;;17.49;45.92;101034.55;1683839;80;25768;-75
2022/05/15 10:48:55;;;;;;;3.03;0.90;;;;;;;17.59;44.63;101021.39;1687149;84;27670;-75
2022/05/15 10:51:40;;;;;;;7.55;1.05;;;;;;;17.75;44.65;101028.66;1690901;84;25741;-74
2022/05/15 10:57:36;;;;;;;5.70;1.20;;;;;;;17.85;44.29;101041.16;1693502;84;26581;-75
2022/05/15 11:00:26;;;;;;;2.85;1.22;;;;;;;17.84;43.57;101033.55;1705047;84;25985;-74
2022/05/15 11:06:18;;;;;;;5.80;1.12;;;;;;;17.88;42.97;101028.53;1692060;81;26710;-75
2022/05/15 11:08:58;;;;;;;3.77;1.05;;;;;;;17.90;44.28;101021.00;1634055;87;25812;-75
2022/05/15 11:12:00;;;;;;;3.90;1.33;;;;;;;17.97;42.92;101026.64;1639402;87;26329;-75
2022/05/15 11:14:44;;;;;;;1.70;0.90;;;;;;;17.97;42.90;101027.99;1579958;90;26402;-75
2022/05/15 11:17:37;;;;;;;5.15;1.00;;;;;;;18.04;42.98;101015.73;1624639;87;46658;-75
2022/05/15 11:20:12;;;;;;;5.62;1.20;;;;;;;18.09;41.95;101020.77;1638952;87;25838;-75
2022/05/15 11:22:46;;;;;;;3.85;0.95;;;;;;;18.12;42.59;101013.55;1639201;87;26558;-75
2022/05/15 11:25:25;;;;;;;6.15;1.30;;;;;;;18.17;43.96;101015.06;1639283;87;26599;-75
2022/05/15 11:27:59;;;;;;;4.87;1.05;;;;;;;18.25;43.82;101016.63;1639385;86;25846;-75
2022/05/15 11:30:36;;;;;;;5.28;1.82;;;;;;;18.21;41.29;101016.27;1637390;87;28327;-75
2022/05/15 11:33:13;;;;;;;3.65;0.93;;;;;;;18.18;41.80;101005.02;1635439;87;25967;-75
2022/05/15 11:35:44;;;;;;;3.30;0.80;;;;;;;18.25;43.74;101004.42;1636886;87;25832;-75
2022/05/15 11:38:29;;;;;;;4.58;1.20;;;;;;;18.35;43.11;101010.97;1631814;87;26931;-75
2022/05/15 11:40:56;;;;;;;6.08;1.27;;;;;;;18.49;43.70;101002.18;1633110;87;25826;-75
2022/05/15 11:43:33;;;;;;;4.85;1.02;;;;;;;18.64;43.09;100991.75;1630462;85;28406;-75
2022/05/15 11:46:11;;;;;;;1.85;0.80;;;;;;;18.69;41.14;100996.50;1626468;87;26147;-75
2022/05/15 11:52:14;;;;;;;4.12;1.17;;;;;;;18.66;41.51;101006.44;1673064;81;26002;-75
2022/05/15 11:54:50;;;;;;;2.25;0.90;;;;;;;18.70;40.28;100989.99;1696649;83;25994;-75
2022/05/15 11:57:40;;;;;;;7.10;0.90;;;;;;;18.63;39.69;100996.86;1693954;83;27634;-75
2022/05/15 12:00:11;;;;;;;5.73;1.10;;;;;;;18.59;40.62;101001.09;1703318;83;26343;-76
2022/05/15 12:02:48;;;;;;;5.67;1.15;;;;;;;18.56;41.23;100996.15;1684094;83;25829;-75
2022/05/15 12:05:41;;;;;;;3.50;1.35;;;;;;;18.64;40.40;101002.61;1691018;83;25795;-76
2022/05/15 12:08:28;;;;;;;6.20;1.77;;;;;;;18.63;40.76;100995.51;1643670;85;25822;-78
2022/05/15 12:10:57;;;;;;;5.50;1.07;;;;;;;18.74;40.74;100991.19;1650706;84;28418;-76
2022/05/15 12:13:40;;;;;;;5.87;1.00;;;;;;;18.79;40.52;100994.88;1658579;85;26100;-76
2022/05/15 12:16:26;;;;;;;5.33;0.90;;;;;;;18.84;40.93;100996.35;1672437;85;25833;-76
2022/05/15 12:18:58;;;;;;;5.30;0.88;;;;;;;18.84;39.90;101008.56;1669260;85;26522;-75